Terminal Aerodrome Forecast
Issued by NWS Green Bay, WI

Home | Current Version | Previous Version | Text Only | Print | Product List | Glossary Off
Versions: 1 2 3 4 5 6 7 8 9 10 11 12 13 14 15 16 17 18 19 20 21 22 23 24 25 26 27 28 29

000
FTUS43 KGRB 201211 RRA
TAFGRB
TAF
KGRB 201211Z 2012/2112 12006KT P6SM BKN250
     FM201600 14010G17KT P6SM BKN200
     FM201900 14012G22KT P6SM OVC150 WS020/19035KT
     FM202300 15014G21KT 6SM SHRA SCT030 OVC050 WS020/20045KT
     FM210300 18012G17KT 4SM -SHRA BR OVC028 WS020/21060KT
     FM210800 24007KT 4SM BR BKN029=

USA.gov is the U.S. government's official web portal to all federal, state and local government web resources and services.